Time;durP1;ratioP1;P1;durP2;ratioP2;P2;SDS_P1;SDS_P2;PMS_P1;PMS_P2;Temp;Humidity;BMP_temperature;BMP_pressure;BME280_temperature;BME280_humidity;BME280_pressure;Samples;Min_cycle;Max_cycle;Signal;HPM_P1;HPM_P2
2021/11/26 00:00:55;;;;;;;48.83;13.80;;;;;;;-145.18;100.00;60484.78;5033156;28;20675;-70
2021/11/26 00:03:21;;;;;;;48.50;14.43;;;;;;;-145.18;100.00;60484.78;5031185;28;20032;-69
2021/11/26 00:05:46;;;;;;;47.30;12.87;;;;;;;-145.18;100.00;60484.78;5036527;28;20798;-70
2021/11/26 00:08:12;;;;;;;55.30;14.57;;;;;;;-145.18;100.00;60484.78;5036530;28;20029;-69
2021/11/26 00:10:37;;;;;;;56.17;13.70;;;;;;;-145.18;100.00;60484.78;5036588;28;20024;-69
2021/11/26 00:13:06;;;;;;;50.83;14.83;;;;;;;-145.18;100.00;60484.78;5032055;28;20021;-70
2021/11/26 00:18:04;;;;;;;46.33;14.90;;;;;;;-145.18;100.00;60484.78;5028663;28;20488;-70
2021/11/26 00:20:30;;;;;;;66.68;15.90;;;;;;;-145.18;100.00;60484.78;5032638;28;20041;-70
2021/11/26 00:22:55;;;;;;;49.73;16.10;;;;;;;-145.18;100.00;60484.78;5025255;28;20048;-69
2021/11/26 00:25:21;;;;;;;57.27;16.83;;;;;;;-145.18;100.00;60484.78;5031650;28;20028;-69
2021/11/26 00:27:46;;;;;;;51.73;15.07;;;;;;;-145.18;100.00;60484.78;5028991;28;20032;-70
2021/11/26 00:30:12;;;;;;;61.53;15.07;;;;;;;-145.18;100.00;60484.78;5031106;28;20032;-70
2021/11/26 00:32:37;;;;;;;53.90;14.80;;;;;;;-145.18;100.00;60484.78;5029493;28;20434;-70
2021/11/26 00:35:05;;;;;;;52.50;14.40;;;;;;;-145.18;100.00;60484.78;5030922;28;20032;-70
2021/11/26 00:37:30;;;;;;;57.00;14.23;;;;;;;-145.18;100.00;60484.78;5026172;28;20033;-69
2021/11/26 00:39:56;;;;;;;52.27;15.13;;;;;;;-145.18;100.00;60484.78;5028302;28;20482;-70
2021/11/26 00:42:21;;;;;;;55.17;13.97;;;;;;;-145.18;100.00;60484.78;5030626;28;20105;-70
2021/11/26 00:44:47;;;;;;;47.43;14.03;;;;;;;-145.18;100.00;60484.78;5027073;28;20606;-70
2021/11/26 00:47:12;;;;;;;58.17;15.53;;;;;;;-145.18;100.00;60484.78;5028530;28;20029;-69
2021/11/26 00:49:38;;;;;;;56.60;14.63;;;;;;;-145.18;100.00;60484.78;5032654;28;20119;-70
2021/11/26 00:52:03;;;;;;;57.07;12.60;;;;;;;-145.18;100.00;60484.78;5033918;28;20025;-70
2021/11/26 00:54:29;;;;;;;51.37;14.30;;;;;;;-145.18;100.00;60484.78;5033475;28;20473;-70
2021/11/26 00:56:54;;;;;;;51.43;13.00;;;;;;;-145.18;100.00;60484.78;5033901;28;20066;-70
2021/11/26 00:59:20;;;;;;;40.00;11.93;;;;;;;-145.18;100.00;60484.78;5036057;28;20017;-70
2021/11/26 01:01:45;;;;;;;41.80;10.53;;;;;;;-145.18;100.00;60484.78;5037223;28;20036;-70
2021/11/26 01:04:11;;;;;;;40.43;12.93;;;;;;;-145.18;100.00;60484.78;5029694;28;20038;-70
2021/11/26 01:06:36;;;;;;;47.93;13.17;;;;;;;-145.18;100.00;60484.78;5030293;28;20520;-69
2021/11/26 01:09:03;;;;;;;51.33;13.43;;;;;;;-145.18;100.00;60484.78;5029785;28;20091;-69
2021/11/26 01:11:28;;;;;;;44.07;12.07;;;;;;;-145.18;100.00;60484.78;5037708;28;20025;-69
2021/11/26 01:13:54;;;;;;;39.73;13.50;;;;;;;-145.18;100.00;60484.78;5034858;28;20286;-69
2021/11/26 01:16:20;;;;;;;42.73;14.27;;;;;;;-145.18;100.00;60484.78;5037138;28;20378;-69
2021/11/26 01:18:45;;;;;;;53.00;14.07;;;;;;;-145.18;100.00;60484.78;5036427;28;20021;-69
2021/11/26 01:21:11;;;;;;;50.83;12.80;;;;;;;-145.18;100.00;60484.78;5036146;28;20539;-69
2021/11/26 01:23:40;;;;;;;46.53;13.13;;;;;;;-145.18;100.00;60484.78;5028688;28;20030;-69
2021/11/26 01:26:06;;;;;;;48.33;11.87;;;;;;;-145.18;100.00;60484.78;5036323;28;20017;-69
2021/11/26 01:28:31;;;;;;;51.50;12.83;;;;;;;-145.18;100.00;60484.78;5035461;28;20272;-69
2021/11/26 01:30:58;;;;;;;54.87;14.87;;;;;;;-145.18;100.00;60484.78;5030950;28;20643;-69
2021/11/26 01:33:24;;;;;;;50.67;14.53;;;;;;;-145.18;100.00;60484.78;5039089;28;20028;-69
2021/11/26 01:35:54;;;;;;;52.23;13.10;;;;;;;-145.18;100.00;60484.78;5031707;28;20284;-69
2021/11/26 01:38:21;;;;;;;56.67;15.00;;;;;;;-145.18;100.00;60484.78;5031578;28;20577;-69
2021/11/26 01:40:47;;;;;;;56.80;14.37;;;;;;;-145.18;100.00;60484.78;5027115;28;20286;-69
2021/11/26 01:43:15;;;;;;;51.27;14.40;;;;;;;-145.18;100.00;60484.78;5033161;28;20821;-69
2021/11/26 01:45:48;;;;;;;46.03;12.83;;;;;;;-145.18;100.00;60484.78;5036539;28;20862;-69
2021/11/26 01:48:14;;;;;;;58.23;12.70;;;;;;;-145.18;100.00;60484.78;5033902;28;20271;-69
2021/11/26 01:50:40;;;;;;;57.20;14.97;;;;;;;-145.18;100.00;60484.78;5033195;28;20314;-69
2021/11/26 01:53:06;;;;;;;49.47;13.93;;;;;;;-145.18;100.00;60484.78;5037805;28;20317;-69
2021/11/26 01:55:32;;;;;;;43.20;12.63;;;;;;;-145.18;100.00;60484.78;5031056;28;20274;-69
2021/11/26 01:57:58;;;;;;;51.77;13.07;;;;;;;-145.18;100.00;60484.78;5029393;28;20753;-69
2021/11/26 02:00:29;;;;;;;57.97;13.10;;;;;;;-145.18;100.00;60484.78;5038456;28;20262;-69
2021/11/26 02:02:56;;;;;;;39.87;10.97;;;;;;;-145.18;100.00;60484.78;5027946;28;20036;-68
2021/11/26 02:05:21;;;;;;;52.97;13.93;;;;;;;-145.18;100.00;60484.78;5118480;23;20323;-74
2021/11/26 02:07:47;;;;;;;45.23;12.90;;;;;;;-145.18;100.00;60484.78;5056242;28;20283;-75
2021/11/26 02:10:12;;;;;;;40.80;11.67;;;;;;;-145.18;100.00;60484.78;5056406;28;20414;-74
2021/11/26 02:12:38;;;;;;;42.47;12.53;;;;;;;-145.18;100.00;60484.78;5056518;28;20575;-75
2021/11/26 02:15:04;;;;;;;45.23;12.73;;;;;;;-145.18;100.00;60484.78;5056746;28;20078;-74
2021/11/26 02:17:30;;;;;;;52.40;14.37;;;;;;;-145.18;100.00;60484.78;5060344;28;20684;-74
2021/11/26 02:19:57;;;;;;;44.60;13.40;;;;;;;-145.18;100.00;60484.78;5059488;28;20524;-74
2021/11/26 02:22:23;;;;;;;43.77;12.73;;;;;;;-145.18;100.00;60484.78;5059235;28;20395;-74
2021/11/26 02:24:48;;;;;;;40.80;13.27;;;;;;;-145.18;100.00;60484.78;5059532;28;20466;-74
2021/11/26 02:27:19;;;;;;;40.43;11.90;;;;;;;-145.18;100.00;60484.78;5059330;28;20020;-74
2021/11/26 02:29:55;;;;;;;50.83;14.20;;;;;;;-145.18;100.00;60484.78;5059784;28;20384;-74
2021/11/26 02:32:21;;;;;;;41.73;11.73;;;;;;;-145.18;100.00;60484.78;5058943;28;20320;-75
2021/11/26 02:34:47;;;;;;;54.20;14.73;;;;;;;-145.18;100.00;60484.78;5057748;28;20275;-75
2021/11/26 02:37:12;;;;;;;44.87;13.47;;;;;;;-145.18;100.00;60484.78;5058048;28;20289;-75
2021/11/26 02:39:38;;;;;;;39.33;12.10;;;;;;;-145.18;100.00;60484.78;5057396;28;20078;-75
2021/11/26 02:42:03;;;;;;;41.63;12.93;;;;;;;-145.18;100.00;60484.78;5064005;28;20045;-74
2021/11/26 02:44:29;;;;;;;44.10;12.87;;;;;;;-145.18;100.00;60484.78;5058798;28;20564;-75
2021/11/26 02:46:54;;;;;;;50.73;13.90;;;;;;;-145.18;100.00;60484.78;5058724;28;20090;-75
2021/11/26 02:49:20;;;;;;;46.77;11.73;;;;;;;-145.18;100.00;60484.78;5057459;28;20262;-74
2021/11/26 02:51:45;;;;;;;56.87;13.37;;;;;;;-145.18;100.00;60484.78;5059214;28;20070;-74
2021/11/26 02:54:11;;;;;;;47.37;13.97;;;;;;;-145.18;100.00;60484.78;5059029;28;20471;-74
2021/11/26 02:56:36;;;;;;;47.83;13.23;;;;;;;-145.18;100.00;60484.78;5057622;28;20043;-74
2021/11/26 02:59:02;;;;;;;34.23;11.37;;;;;;;-145.18;100.00;60484.78;5057513;28;20024;-75
2021/11/26 03:01:27;;;;;;;39.77;12.60;;;;;;;-145.18;100.00;60484.78;5058348;28;20043;-74
2021/11/26 03:03:52;;;;;;;42.23;13.50;;;;;;;-145.18;100.00;60484.78;5058913;28;20075;-74
2021/11/26 03:06:18;;;;;;;35.83;12.67;;;;;;;-145.18;100.00;60484.78;5053205;28;20283;-75
2021/11/26 03:08:43;;;;;;;38.13;13.00;;;;;;;-145.18;100.00;60484.78;5052023;28;20514;-74
2021/11/26 03:11:09;;;;;;;40.93;12.30;;;;;;;-145.18;100.00;60484.78;5053125;28;20028;-73
2021/11/26 03:13:34;;;;;;;42.77;12.67;;;;;;;-145.18;100.00;60484.78;5050572;28;20058;-73
2021/11/26 03:16:01;;;;;;;39.80;12.47;;;;;;;-145.18;100.00;60484.78;5055132;28;20168;-73
2021/11/26 03:18:28;;;;;;;38.80;11.67;;;;;;;-145.18;100.00;60484.78;5053550;28;20036;-74
2021/11/26 03:20:54;;;;;;;36.63;10.97;;;;;;;-145.18;100.00;60484.78;5051357;28;20305;-74
2021/11/26 03:23:21;;;;;;;42.13;12.97;;;;;;;-145.18;100.00;60484.78;5053846;28;20905;-73
2021/11/26 03:25:46;;;;;;;40.13;12.37;;;;;;;-145.18;100.00;60484.78;5058073;28;20290;-73
2021/11/26 03:28:13;;;;;;;33.97;12.07;;;;;;;-145.18;100.00;60484.78;5048157;28;20874;-73
2021/11/26 03:30:39;;;;;;;38.40;13.10;;;;;;;-145.18;100.00;60484.78;5048243;28;20028;-73
2021/11/26 03:33:05;;;;;;;38.33;13.40;;;;;;;-145.18;100.00;60484.78;5049243;28;20275;-73
2021/11/26 03:35:31;;;;;;;34.67;11.37;;;;;;;-145.18;100.00;60484.78;5050466;28;20293;-74
2021/11/26 03:37:58;;;;;;;41.47;12.30;;;;;;;-145.18;100.00;60484.78;5050968;28;20037;-74
2021/11/26 03:40:24;;;;;;;29.37;10.87;;;;;;;-145.18;100.00;60484.78;5053502;28;20419;-73
2021/11/26 03:42:51;;;;;;;44.50;12.20;;;;;;;-145.18;100.00;60484.78;5050449;28;20279;-73
2021/11/26 03:45:19;;;;;;;36.63;13.30;;;;;;;-145.18;100.00;60484.78;5056395;28;20550;-73
2021/11/26 03:47:45;;;;;;;35.33;12.00;;;;;;;-145.18;100.00;60484.78;5055368;28;20267;-73
2021/11/26 03:50:12;;;;;;;36.93;12.57;;;;;;;-145.18;100.00;60484.78;5052672;28;20369;-73
2021/11/26 03:52:38;;;;;;;30.20;10.93;;;;;;;-145.18;100.00;60484.78;5051538;28;20566;-73
2021/11/26 03:55:06;;;;;;;32.03;11.60;;;;;;;-145.18;100.00;60484.78;5047132;28;20542;-74
2021/11/26 03:57:31;;;;;;;30.17;10.37;;;;;;;-145.18;100.00;60484.78;5052391;28;20266;-74
2021/11/26 03:59:57;;;;;;;33.37;10.53;;;;;;;-145.18;100.00;60484.78;5053159;28;20494;-74
2021/11/26 04:02:22;;;;;;;37.43;12.47;;;;;;;-145.18;100.00;60484.78;5054547;28;20050;-73
2021/11/26 04:04:48;;;;;;;34.43;12.23;;;;;;;-145.18;100.00;60484.78;5049320;28;20085;-74
2021/11/26 04:07:13;;;;;;;33.70;11.17;;;;;;;-145.18;100.00;60484.78;5049572;28;20111;-73
2021/11/26 04:09:38;;;;;;;35.87;11.10;;;;;;;-145.18;100.00;60484.78;5050209;28;20028;-73
2021/11/26 04:12:04;;;;;;;46.00;12.70;;;;;;;-145.18;100.00;60484.78;5044693;28;20028;-73
2021/11/26 04:14:30;;;;;;;37.23;11.37;;;;;;;-145.18;100.00;60484.78;5055660;28;20263;-74
2021/11/26 04:16:56;;;;;;;35.27;11.23;;;;;;;-145.18;100.00;60484.78;5052271;28;20282;-74
2021/11/26 04:19:21;;;;;;;36.93;11.43;;;;;;;-145.18;100.00;60484.78;5054930;28;20245;-74
2021/11/26 04:21:47;;;;;;;30.33;11.10;;;;;;;-145.18;100.00;60484.78;5054352;28;20244;-73
2021/11/26 04:24:12;;;;;;;36.43;12.00;;;;;;;-145.18;100.00;60484.78;5055265;28;20605;-73
2021/11/26 04:26:38;;;;;;;32.70;11.13;;;;;;;-145.18;100.00;60484.78;5052943;28;20028;-73
2021/11/26 04:29:04;;;;;;;32.00;10.73;;;;;;;-145.18;100.00;60484.78;5056757;28;20118;-73
2021/11/26 04:31:29;;;;;;;30.23;9.73;;;;;;;-145.18;100.00;60484.78;5052500;28;20056;-73
2021/11/26 04:33:55;;;;;;;31.20;11.13;;;;;;;-145.18;100.00;60484.78;5049273;28;20020;-74
2021/11/26 04:36:22;;;;;;;39.37;10.40;;;;;;;-145.18;100.00;60484.78;5048358;28;20031;-73
2021/11/26 04:38:48;;;;;;;29.77;11.80;;;;;;;-145.18;100.00;60484.78;5051096;28;20195;-73
2021/11/26 04:41:13;;;;;;;29.20;10.53;;;;;;;-145.18;100.00;60484.78;5054612;28;20282;-74
2021/11/26 04:43:39;;;;;;;31.57;11.03;;;;;;;-145.18;100.00;60484.78;5049967;28;20028;-73
2021/11/26 04:46:04;;;;;;;31.23;10.73;;;;;;;-145.18;100.00;60484.78;5054664;28;20431;-74
2021/11/26 04:48:30;;;;;;;36.73;13.43;;;;;;;-145.18;100.00;60484.78;5054996;28;20040;-73
2021/11/26 04:50:55;;;;;;;38.03;13.50;;;;;;;-145.18;100.00;60484.78;5051227;28;20395;-73
2021/11/26 04:53:21;;;;;;;32.27;11.40;;;;;;;-145.18;100.00;60484.78;5050462;28;20468;-73
2021/11/26 04:55:48;;;;;;;36.83;12.10;;;;;;;-145.18;100.00;60484.78;5051324;28;20025;-73
2021/11/26 04:58:14;;;;;;;32.17;11.40;;;;;;;-145.18;100.00;60484.78;5051848;28;20111;-73
2021/11/26 05:00:39;;;;;;;31.17;11.47;;;;;;;-145.18;100.00;60484.78;5048931;28;20275;-74
2021/11/26 05:03:05;;;;;;;42.20;11.13;;;;;;;-145.18;100.00;60484.78;5050352;28;20219;-73
2021/11/26 05:05:32;;;;;;;39.63;11.83;;;;;;;-145.18;100.00;60484.78;5049312;28;20054;-73
2021/11/26 05:07:57;;;;;;;27.33;9.63;;;;;;;-145.18;100.00;60484.78;5047814;28;20025;-73
2021/11/26 05:10:24;;;;;;;34.97;12.00;;;;;;;-145.18;100.00;60484.78;5048078;28;20363;-73
2021/11/26 05:12:57;;;;;;;36.43;11.77;;;;;;;-145.18;100.00;60484.78;5048230;28;20032;-73
2021/11/26 05:15:26;;;;;;;33.07;12.53;;;;;;;-145.18;100.00;60484.78;5050490;28;20342;-73
2021/11/26 05:17:56;;;;;;;37.37;12.33;;;;;;;-145.18;100.00;60484.78;5047188;28;20270;-73
2021/11/26 05:20:22;;;;;;;36.40;11.70;;;;;;;-145.18;100.00;60484.78;5046625;28;20433;-73
2021/11/26 05:22:49;;;;;;;30.20;11.27;;;;;;;-145.18;100.00;60484.78;5042282;28;20381;-73
2021/11/26 05:25:15;;;;;;;31.03;12.03;;;;;;;-145.18;100.00;60484.78;5051327;28;20020;-73
2021/11/26 05:27:40;;;;;;;30.73;12.07;;;;;;;-145.18;100.00;60484.78;5055454;28;20653;-73
2021/11/26 05:30:08;;;;;;;34.27;11.27;;;;;;;-145.18;100.00;60484.78;5050401;28;20028;-73
2021/11/26 05:32:33;;;;;;;33.63;12.47;;;;;;;-145.18;100.00;60484.78;5053160;28;20093;-73
2021/11/26 05:34:58;;;;;;;33.93;13.07;;;;;;;-145.18;100.00;60484.78;5049090;28;20328;-73
2021/11/26 05:37:24;;;;;;;34.57;12.13;;;;;;;-145.18;100.00;60484.78;5052743;28;20073;-73
2021/11/26 05:39:49;;;;;;;31.10;11.70;;;;;;;-145.18;100.00;60484.78;5044962;28;20036;-73
2021/11/26 05:42:15;;;;;;;33.27;12.97;;;;;;;-145.18;100.00;60484.78;5050924;28;20029;-73
2021/11/26 05:44:40;;;;;;;32.10;12.43;;;;;;;-145.18;100.00;60484.78;5048152;28;20049;-73
2021/11/26 05:47:06;;;;;;;38.87;12.50;;;;;;;-145.18;100.00;60484.78;5052583;28;20101;-73
2021/11/26 05:49:31;;;;;;;34.57;11.70;;;;;;;-145.18;100.00;60484.78;5050862;28;20035;-73
2021/11/26 05:51:57;;;;;;;31.60;12.63;;;;;;;-145.18;100.00;60484.78;5057487;28;20028;-73
2021/11/26 05:54:22;;;;;;;34.53;13.23;;;;;;;-145.18;100.00;60484.78;5055153;28;20059;-73
2021/11/26 05:56:47;;;;;;;34.30;11.80;;;;;;;-145.18;100.00;60484.78;5057669;28;20113;-73
2021/11/26 05:59:13;;;;;;;35.30;12.33;;;;;;;-145.18;100.00;60484.78;5056151;28;20127;-73
2021/11/26 06:01:38;;;;;;;32.50;11.60;;;;;;;-145.18;100.00;60484.78;5053555;28;20514;-73
2021/11/26 06:04:04;;;;;;;32.17;11.07;;;;;;;-145.18;100.00;60484.78;5051512;28;20044;-73
2021/11/26 06:06:29;;;;;;;37.17;11.97;;;;;;;-145.18;100.00;60484.78;5053228;28;20060;-73
2021/11/26 06:08:55;;;;;;;29.90;11.57;;;;;;;-145.18;100.00;60484.78;5054523;28;20029;-73
2021/11/26 06:11:21;;;;;;;32.80;12.93;;;;;;;-145.18;100.00;60484.78;5056197;28;20056;-73
2021/11/26 06:13:46;;;;;;;31.23;11.23;;;;;;;-145.18;100.00;60484.78;5050361;28;20342;-73
2021/11/26 06:16:11;;;;;;;32.10;11.60;;;;;;;-145.18;100.00;60484.78;5055083;28;20405;-73
2021/11/26 06:18:37;;;;;;;26.10;10.43;;;;;;;-145.18;100.00;60484.78;5052099;28;20024;-73
2021/11/26 06:21:02;;;;;;;39.37;12.63;;;;;;;-145.18;100.00;60484.78;5050735;28;20032;-73
2021/11/26 06:23:28;;;;;;;29.93;11.50;;;;;;;-145.18;100.00;60484.78;5051107;28;20025;-73
2021/11/26 06:25:53;;;;;;;27.13;11.43;;;;;;;-145.18;100.00;60484.78;5053080;28;20036;-74
2021/11/26 06:28:19;;;;;;;29.10;10.63;;;;;;;-145.18;100.00;60484.78;5048943;28;20036;-74
2021/11/26 06:30:44;;;;;;;26.13;11.67;;;;;;;-145.18;100.00;60484.78;5050835;28;20024;-73
2021/11/26 06:33:10;;;;;;;29.73;12.00;;;;;;;-145.18;100.00;60484.78;5055245;28;20037;-73
2021/11/26 06:35:35;;;;;;;25.03;8.90;;;;;;;-145.18;100.00;60484.78;5058557;28;20027;-73
2021/11/26 06:38:01;;;;;;;27.23;10.97;;;;;;;-145.18;100.00;60484.78;5054670;28;20209;-73
2021/11/26 06:40:27;;;;;;;26.33;10.43;;;;;;;-145.18;100.00;60484.78;5051920;28;20040;-73
2021/11/26 06:42:52;;;;;;;28.77;10.83;;;;;;;-145.18;100.00;60484.78;5056872;28;20226;-72
2021/11/26 06:45:19;;;;;;;23.60;9.97;;;;;;;-145.18;100.00;60484.78;5052319;28;20029;-72
2021/11/26 06:47:48;;;;;;;27.47;10.60;;;;;;;-145.18;100.00;60484.78;5056308;28;20024;-76
2021/11/26 06:50:15;;;;;;;25.50;9.97;;;;;;;-145.18;100.00;60484.78;5058412;28;20485;-73
2021/11/26 06:52:40;;;;;;;21.00;9.63;;;;;;;-145.18;100.00;60484.78;5058996;28;20282;-73
2021/11/26 06:55:07;;;;;;;30.97;11.60;;;;;;;-145.18;100.00;60484.78;5059836;28;20286;-73
2021/11/26 06:57:34;;;;;;;30.40;11.73;;;;;;;-145.18;100.00;60484.78;5068372;28;20543;-73
2021/11/26 06:59:59;;;;;;;24.10;10.17;;;;;;;-145.18;100.00;60484.78;5059201;28;20301;-73
2021/11/26 07:02:24;;;;;;;34.23;11.33;;;;;;;-145.18;100.00;60484.78;5057231;28;20278;-73
2021/11/26 07:04:50;;;;;;;32.27;11.63;;;;;;;-145.18;100.00;60484.78;5057074;28;20040;-71
2021/11/26 07:07:15;;;;;;;31.10;11.50;;;;;;;-145.18;100.00;60484.78;5058359;28;20114;-73
2021/11/26 07:09:41;;;;;;;28.07;10.53;;;;;;;-145.18;100.00;60484.78;5056233;28;20195;-72
2021/11/26 07:12:10;;;;;;;25.87;10.30;;;;;;;-145.18;100.00;60484.78;5060206;28;20036;-72
2021/11/26 07:14:45;;;;;;;30.90;10.53;;;;;;;-145.18;100.00;60484.78;5053412;28;20032;-72
2021/11/26 07:17:12;;;;;;;27.77;9.97;;;;;;;-145.18;100.00;60484.78;5050162;28;20862;-73
2021/11/26 07:19:39;;;;;;;25.63;9.93;;;;;;;-145.18;100.00;60484.78;5049844;28;20124;-73
2021/11/26 07:22:05;;;;;;;25.10;10.53;;;;;;;-145.18;100.00;60484.78;5053883;28;20294;-72
2021/11/26 07:24:30;;;;;;;31.17;11.30;;;;;;;-145.18;100.00;60484.78;5057872;28;20274;-73
2021/11/26 07:26:56;;;;;;;24.13;10.27;;;;;;;-145.18;100.00;60484.78;5059137;28;20766;-73
2021/11/26 07:29:21;;;;;;;27.47;10.37;;;;;;;-145.18;100.00;60484.78;5059472;28;20062;-73
2021/11/26 07:31:47;;;;;;;25.00;10.97;;;;;;;-145.18;100.00;60484.78;5057402;28;20028;-72
2021/11/26 07:34:12;;;;;;;23.37;9.90;;;;;;;-145.18;100.00;60484.78;5055175;28;20180;-72
2021/11/26 07:36:38;;;;;;;25.20;9.57;;;;;;;-145.18;100.00;60484.78;5057479;28;20484;-72
2021/11/26 07:39:04;;;;;;;23.43;10.37;;;;;;;-145.18;100.00;60484.78;5058667;28;20107;-73
2021/11/26 07:41:29;;;;;;;22.83;10.53;;;;;;;-145.18;100.00;60484.78;5058350;28;20595;-73
2021/11/26 07:43:55;;;;;;;23.67;10.50;;;;;;;-145.18;100.00;60484.78;5054026;28;20331;-72
2021/11/26 07:46:20;;;;;;;23.90;10.47;;;;;;;-145.18;100.00;60484.78;5054202;28;20028;-72
2021/11/26 07:48:46;;;;;;;25.77;10.73;;;;;;;-145.18;100.00;60484.78;5059127;28;20277;-72
2021/11/26 07:51:12;;;;;;;29.27;11.37;;;;;;;-145.18;100.00;60484.78;5051187;28;20036;-73
2021/11/26 07:53:37;;;;;;;21.97;9.47;;;;;;;-145.18;100.00;60484.78;5056384;28;20029;-73
2021/11/26 07:56:03;;;;;;;20.97;9.60;;;;;;;-145.18;100.00;60484.78;5055040;28;20190;-73
2021/11/26 07:58:29;;;;;;;24.97;10.00;;;;;;;-145.18;100.00;60484.78;5063961;28;20119;-73
2021/11/26 08:00:54;;;;;;;23.27;9.57;;;;;;;-145.18;100.00;60484.78;5049414;28;20407;-72
2021/11/26 08:03:21;;;;;;;23.37;10.03;;;;;;;-145.18;100.00;60484.78;5055213;28;20187;-72
2021/11/26 08:05:48;;;;;;;20.60;8.83;;;;;;;-145.18;100.00;60484.78;5057706;28;20276;-73
2021/11/26 08:08:13;;;;;;;24.63;8.93;;;;;;;-145.18;100.00;60484.78;5054485;28;20037;-73
2021/11/26 08:10:39;;;;;;;29.70;8.87;;;;;;;-145.18;100.00;60484.78;5056945;28;20423;-75
2021/11/26 08:13:06;;;;;;;19.97;9.30;;;;;;;-145.18;100.00;60484.78;5055633;28;20043;-72
2021/11/26 08:15:32;;;;;;;20.03;8.37;;;;;;;-145.18;100.00;60484.78;5057031;28;20035;-73
2021/11/26 08:18:01;;;;;;;18.77;8.30;;;;;;;-145.18;100.00;60484.78;5046154;28;20512;-72
2021/11/26 08:20:26;;;;;;;18.10;7.60;;;;;;;-145.18;100.00;60484.78;5053715;28;20271;-72
2021/11/26 08:22:53;;;;;;;18.70;8.23;;;;;;;-145.18;100.00;60484.78;5057265;28;20294;-72
2021/11/26 08:25:20;;;;;;;14.80;7.53;;;;;;;-145.18;100.00;60484.78;5054564;28;20052;-73
2021/11/26 08:27:46;;;;;;;17.77;8.43;;;;;;;-145.18;100.00;60484.78;5055657;28;20051;-73
2021/11/26 08:30:12;;;;;;;14.30;7.07;;;;;;;-145.18;100.00;60484.78;5050472;28;20341;-73
2021/11/26 08:32:38;;;;;;;18.10;7.80;;;;;;;-145.18;100.00;60484.78;5050295;28;20070;-73
2021/11/26 08:35:04;;;;;;;18.07;7.83;;;;;;;-145.18;100.00;60484.78;5053784;28;20032;-73
2021/11/26 08:37:30;;;;;;;17.50;7.63;;;;;;;-145.18;100.00;60484.78;5056611;28;20040;-72
2021/11/26 08:39:56;;;;;;;16.40;6.87;;;;;;;-145.18;100.00;60484.78;5057169;28;20043;-73
2021/11/26 08:42:22;;;;;;;18.63;7.60;;;;;;;-145.18;100.00;60484.78;5053060;28;20074;-72
2021/11/26 08:44:47;;;;;;;16.47;7.47;;;;;;;-145.18;100.00;60484.78;5053943;28;20551;-72
2021/11/26 08:47:13;;;;;;;19.70;8.23;;;;;;;-145.18;100.00;60484.78;5050927;28;20265;-72
2021/11/26 08:49:38;;;;;;;17.30;8.37;;;;;;;-145.18;100.00;60484.78;5055069;28;20030;-72
2021/11/26 08:52:04;;;;;;;15.50;7.50;;;;;;;-145.18;100.00;60484.78;5050410;28;20048;-73
2021/11/26 08:54:29;;;;;;;16.03;7.70;;;;;;;-145.18;100.00;60484.78;5057567;28;20584;-72
2021/11/26 08:56:56;;;;;;;18.67;8.17;;;;;;;-145.18;100.00;60484.78;5055858;28;20524;-73
2021/11/26 08:59:25;;;;;;;22.13;9.87;;;;;;;-145.18;100.00;60484.78;5050603;28;20033;-72
2021/11/26 09:01:53;;;;;;;18.83;8.17;;;;;;;-145.18;100.00;60484.78;5051327;28;20036;-72
2021/11/26 09:04:20;;;;;;;16.67;7.83;;;;;;;-145.18;100.00;60484.78;5046540;28;20076;-73
2021/11/26 09:06:46;;;;;;;20.27;7.80;;;;;;;-145.18;100.00;60484.78;5058797;28;20103;-72
2021/11/26 09:09:11;;;;;;;16.10;7.67;;;;;;;-145.18;100.00;60484.78;5053560;28;20107;-73
2021/11/26 09:11:37;;;;;;;16.93;7.27;;;;;;;-145.18;100.00;60484.78;5051136;28;20032;-73
2021/11/26 09:14:05;;;;;;;18.90;8.40;;;;;;;-145.18;100.00;60484.78;5051939;28;20027;-72
2021/11/26 09:16:31;;;;;;;19.10;8.50;;;;;;;-145.18;100.00;60484.78;5044471;28;20029;-73
2021/11/26 09:18:56;;;;;;;21.77;8.30;;;;;;;-145.18;100.00;60484.78;5041753;28;20082;-73
2021/11/26 09:21:22;;;;;;;18.63;8.37;;;;;;;-145.18;100.00;60484.78;5027226;28;20037;-73
2021/11/26 09:23:49;;;;;;;16.90;8.13;;;;;;;-145.18;100.00;60484.78;5044400;28;20041;-73
2021/11/26 09:26:15;;;;;;;18.40;8.33;;;;;;;-145.18;100.00;60484.78;5051363;28;20036;-72
2021/11/26 09:28:40;;;;;;;17.13;8.17;;;;;;;-145.18;100.00;60484.78;5055175;28;20036;-73
2021/11/26 09:31:06;;;;;;;16.87;7.30;;;;;;;-145.18;100.00;60484.78;5052656;28;20063;-72
2021/11/26 09:33:35;;;;;;;14.23;6.60;;;;;;;-145.18;100.00;60484.78;5056322;28;20032;-72
2021/11/26 09:36:05;;;;;;;15.37;7.37;;;;;;;-145.18;100.00;60484.78;5054221;28;20032;-73
2021/11/26 09:38:32;;;;;;;15.00;6.67;;;;;;;-145.18;100.00;60484.78;5046238;28;20070;-72
2021/11/26 09:40:59;;;;;;;14.27;6.40;;;;;;;-145.18;100.00;60484.78;5053094;28;20542;-73
2021/11/26 09:43:26;;;;;;;17.70;6.40;;;;;;;-145.18;100.00;60484.78;5044624;28;20037;-72
2021/11/26 09:45:52;;;;;;;15.07;7.30;;;;;;;-145.18;100.00;60484.78;5052919;28;20037;-73
2021/11/26 09:48:17;;;;;;;19.50;6.70;;;;;;;-145.18;100.00;60484.78;5054221;28;20476;-72
2021/11/26 09:50:43;;;;;;;14.40;5.40;;;;;;;-145.18;100.00;60484.78;5054366;28;20032;-72
2021/11/26 09:53:12;;;;;;;12.53;6.03;;;;;;;-145.18;100.00;60484.78;5052841;28;20048;-72
2021/11/26 09:55:43;;;;;;;14.87;7.07;;;;;;;-145.18;100.00;60484.78;5052988;28;20197;-72
2021/11/26 09:58:08;;;;;;;16.53;7.73;;;;;;;-145.18;100.00;60484.78;5054535;28;20529;-72
2021/11/26 10:00:33;;;;;;;16.77;5.93;;;;;;;-145.18;100.00;60484.78;5049057;28;20609;-73
2021/11/26 10:02:59;;;;;;;13.87;5.60;;;;;;;-145.18;100.00;60484.78;5053398;28;20032;-72
2021/11/26 10:05:25;;;;;;;12.70;4.83;;;;;;;-145.18;100.00;60484.78;5050290;28;20048;-72
2021/11/26 10:07:54;;;;;;;15.13;4.93;;;;;;;-145.18;100.00;60484.78;5048653;28;20033;-73
2021/11/26 10:10:25;;;;;;;9.77;4.40;;;;;;;-145.18;100.00;60484.78;5045444;28;20579;-73
2021/11/26 10:13:12;;;;;;;10.77;4.85;;;;;;;-145.18;100.00;60484.78;5044698;28;20079;-72
2021/11/26 10:15:43;;;;;;;10.30;4.63;;;;;;;-145.18;100.00;60484.78;5042814;28;20059;-72
2021/11/26 10:18:17;;;;;;;11.83;4.53;;;;;;;-145.18;100.00;60484.78;5049170;28;20218;-73
2021/11/26 10:20:55;;;;;;;10.60;4.63;;;;;;;-145.18;100.00;60484.78;5049959;28;20504;-72
2021/11/26 10:23:22;;;;;;;11.97;3.90;;;;;;;-145.18;100.00;60484.78;5051278;28;20032;-73
2021/11/26 10:25:48;;;;;;;10.00;4.33;;;;;;;-145.18;100.00;60484.78;5049574;28;20326;-72
2021/11/26 10:28:14;;;;;;;9.60;4.57;;;;;;;-145.18;100.00;60484.78;5050367;28;20520;-72
2021/11/26 10:30:42;;;;;;;12.17;4.17;;;;;;;-145.18;100.00;60484.78;5046668;28;20137;-73
2021/11/26 10:33:18;;;;;;;8.23;4.33;;;;;;;-145.18;100.00;60484.78;5045382;28;20025;-73
2021/11/26 10:35:49;;;;;;;14.47;4.57;;;;;;;-145.18;100.00;60484.78;5049596;28;20481;-73
2021/11/26 10:38:24;;;;;;;10.10;4.23;;;;;;;-145.18;100.00;60484.78;5045020;28;20079;-72
2021/11/26 10:40:56;;;;;;;8.43;3.50;;;;;;;-145.18;100.00;60484.78;5045961;28;20047;-73
2021/11/26 10:43:33;;;;;;;9.45;4.53;;;;;;;-145.18;100.00;60484.78;5046938;28;20029;-72
2021/11/26 10:59:29;;;;;;;11.00;4.77;;;;;;;-145.18;100.00;60484.78;4989945;28;20046;-73
2021/11/26 11:01:55;;;;;;;11.97;4.80;;;;;;;-145.18;100.00;60484.78;4988424;28;20699;-73
2021/11/26 11:04:24;;;;;;;14.47;4.50;;;;;;;-145.18;100.00;60484.78;4989842;28;20042;-73
2021/11/26 11:06:58;;;;;;;11.57;4.63;;;;;;;-145.18;100.00;60484.78;4986972;28;20509;-73
2021/11/26 11:09:24;;;;;;;9.97;4.80;;;;;;;-145.18;100.00;60484.78;4982453;28;20061;-72